Time;durP1;ratioP1;P1;durP2;ratioP2;P2;SDS_P1;SDS_P2;PMS_P1;PMS_P2;Temp;Humidity;BMP_temperature;BMP_pressure;BME280_temperature;BME280_humidity;BME280_pressure;Samples;Min_cycle;Max_cycle;Signal;HPM_P1;HPM_P2
2022/01/07 00:02:52;;;;;;;31.68;10.50;;;;;;;-4.30;74.99;100638.31;1930112;88;21035;-78
2022/01/07 00:05:56;;;;;;;29.25;11.78;;;;;;;-4.30;75.19;100634.89;1969265;89;21563;-78
2022/01/07 00:09:07;;;;;;;31.25;12.30;;;;;;;-4.29;75.49;100637.41;1909650;91;21320;-78
2022/01/07 00:12:21;;;;;;;41.37;15.28;;;;;;;-4.34;75.43;100641.91;1927521;90;21212;-78
2022/01/07 00:15:25;;;;;;;64.25;19.75;;;;;;;-4.31;75.64;100643.55;1947158;88;21222;-78
2022/01/07 00:18:31;;;;;;;77.90;23.32;;;;;;;-4.30;75.68;100637.48;1959943;89;21057;-78
2022/01/07 00:21:41;;;;;;;76.92;24.32;;;;;;;-4.32;75.39;100637.98;1963677;89;21555;-78
2022/01/07 00:24:48;;;;;;;61.60;21.07;;;;;;;-4.35;75.56;100629.03;1944829;89;21265;-77
2022/01/07 00:27:54;;;;;;;63.95;20.20;;;;;;;-4.35;75.68;100635.52;1963371;89;21400;-78
2022/01/07 00:31:03;;;;;;;53.00;16.85;;;;;;;-4.37;75.87;100632.12;1960439;89;21102;-78
2022/01/07 00:34:14;;;;;;;44.42;14.83;;;;;;;-4.37;75.89;100628.24;1966449;89;21154;-78
2022/01/07 00:37:18;;;;;;;40.38;13.98;;;;;;;-4.42;76.07;100626.27;2013440;86;21045;-78
2022/01/07 00:40:26;;;;;;;42.73;16.27;;;;;;;-4.44;76.30;100622.47;2025889;86;21376;-78
2022/01/07 00:43:32;;;;;;;44.88;15.00;;;;;;;-4.44;76.64;100620.33;2024033;86;21089;-78
2022/01/07 00:46:40;;;;;;;43.70;15.40;;;;;;;-4.44;76.73;100622.47;2023388;86;21105;-78
2022/01/07 00:49:45;;;;;;;42.73;15.80;;;;;;;-4.44;76.88;100621.17;2001999;86;21067;-78
2022/01/07 00:52:51;;;;;;;34.13;14.95;;;;;;;-4.44;76.96;100612.56;2009127;86;21098;-78
2022/01/07 00:55:56;;;;;;;38.08;14.98;;;;;;;-4.45;77.07;100616.87;2031616;86;21053;-78
2022/01/07 00:59:01;;;;;;;40.58;16.67;;;;;;;-4.45;77.19;100617.33;1957616;86;21582;-78
2022/01/07 01:02:08;;;;;;;39.85;17.15;;;;;;;-4.44;77.25;100621.17;2027653;86;21134;-78
2022/01/07 01:05:19;;;;;;;44.38;18.12;;;;;;;-4.43;77.27;100619.42;2030029;86;21030;-78
2022/01/07 01:08:21;;;;;;;49.13;18.70;;;;;;;-4.42;77.34;100619.38;2028527;86;21053;-78
2022/01/07 01:11:29;;;;;;;45.63;16.45;;;;;;;-4.38;77.43;100613.16;1975954;86;21175;-78
2022/01/07 01:14:36;;;;;;;43.75;16.75;;;;;;;-4.38;77.49;100611.86;2025182;86;21547;-78
2022/01/07 01:17:39;;;;;;;37.10;15.80;;;;;;;-4.32;77.59;100605.59;2018358;86;21059;-78
2022/01/07 01:20:41;;;;;;;43.90;15.20;;;;;;;-4.28;77.52;100614.92;1997555;87;21083;-78
2022/01/07 01:23:50;;;;;;;37.63;16.57;;;;;;;-4.25;77.61;100613.95;1996090;87;21019;-78
2022/01/07 01:26:59;;;;;;;42.25;15.68;;;;;;;-4.22;77.65;100616.42;2017650;86;21066;-78
2022/01/07 01:30:05;;;;;;;34.27;14.63;;;;;;;-4.25;77.53;100623.91;2000786;86;21039;-78
2022/01/07 01:33:07;;;;;;;32.85;14.25;;;;;;;-4.24;77.54;100615.20;2015913;86;21550;-78
2022/01/07 01:36:15;;;;;;;39.20;14.70;;;;;;;-4.20;77.47;100612.88;1981758;86;21077;-78
2022/01/07 01:39:20;;;;;;;37.20;15.18;;;;;;;-4.19;77.30;100617.17;2013837;87;21050;-78
2022/01/07 01:42:26;;;;;;;34.67;14.65;;;;;;;-4.16;77.25;100620.94;2020893;86;21058;-78
2022/01/07 01:45:29;;;;;;;42.60;15.95;;;;;;;-4.13;77.17;100614.79;2015315;86;21059;-78
2022/01/07 01:48:33;;;;;;;35.55;14.23;;;;;;;-4.12;77.20;100618.59;2000503;86;21054;-78
2022/01/07 01:51:35;;;;;;;36.15;14.75;;;;;;;-4.08;77.30;100612.41;2015548;86;21043;-78
2022/01/07 01:54:46;;;;;;;33.48;13.72;;;;;;;-4.11;77.30;100615.55;2012810;86;21699;-78
2022/01/07 01:57:47;;;;;;;32.42;12.95;;;;;;;-4.14;77.29;100615.25;2018198;86;21077;-78
2022/01/07 02:00:51;;;;;;;32.10;12.95;;;;;;;-4.12;77.44;100620.35;2015881;87;21529;-78
2022/01/07 02:03:53;;;;;;;31.33;13.08;;;;;;;-4.12;77.49;100613.41;1995497;87;21739;-78
2022/01/07 02:07:01;;;;;;;31.97;13.15;;;;;;;-4.10;77.51;100614.66;1997466;87;21123;-78
2022/01/07 02:10:11;;;;;;;43.30;15.08;;;;;;;-4.09;77.50;100611.16;2025176;86;23107;-78
2022/01/07 02:13:20;;;;;;;36.73;14.40;;;;;;;-4.12;77.53;100609.53;1998230;87;21030;-78
2022/01/07 02:16:25;;;;;;;34.20;13.93;;;;;;;-4.18;77.53;100613.66;2012752;86;21091;-77
2022/01/07 02:19:32;;;;;;;34.90;13.65;;;;;;;-4.22;77.55;100609.52;2016380;86;21280;-78
2022/01/07 02:22:37;;;;;;;36.63;13.93;;;;;;;-4.24;77.59;100605.30;2014340;86;20983;-78
2022/01/07 02:25:51;;;;;;;37.75;15.90;;;;;;;-4.30;77.68;100602.05;1997040;87;21074;-78
2022/01/07 02:28:56;;;;;;;32.90;11.63;;;;;;;-4.32;77.73;100599.12;2000879;87;21073;-78
2022/01/07 02:32:07;;;;;;;31.48;12.45;;;;;;;-4.39;77.68;100600.25;2017606;86;21057;-78
2022/01/07 02:35:13;;;;;;;38.88;16.30;;;;;;;-4.41;77.70;100599.48;2015212;86;21093;-78
2022/01/07 02:38:18;;;;;;;45.43;17.73;;;;;;;-4.43;77.71;100590.47;2015361;86;21098;-78
2022/01/07 02:41:24;;;;;;;62.70;23.05;;;;;;;-4.42;77.68;100584.40;2017127;86;21015;-78
2022/01/07 02:44:30;;;;;;;48.17;18.65;;;;;;;-4.42;77.63;100591.30;1996407;87;21074;-78
2022/01/07 02:47:49;;;;;;;46.60;14.78;;;;;;;-4.42;77.56;100591.30;2014177;86;21015;-78
2022/01/07 02:50:44;;;;;;;32.38;13.60;;;;;;;-4.38;77.59;100591.13;2012001;86;21086;-78
2022/01/07 02:53:50;;;;;;;29.80;12.73;;;;;;;-4.28;77.39;100594.19;2020113;86;21348;-78
2022/01/07 02:56:54;;;;;;;34.50;13.40;;;;;;;-4.25;77.25;100590.22;2015677;86;21058;-79
2022/01/07 03:00:02;;;;;;;33.95;11.93;;;;;;;-4.24;77.06;100598.36;2000856;86;20996;-78
2022/01/07 03:03:06;;;;;;;31.45;10.82;;;;;;;-4.26;76.94;100604.05;2001043;87;21062;-79
2022/01/07 03:06:12;;;;;;;34.80;12.73;;;;;;;-4.37;76.71;100606.22;2015749;87;21050;-78
2022/01/07 03:09:17;;;;;;;32.53;12.50;;;;;;;-4.43;76.86;100608.59;2018482;86;21824;-78
2022/01/07 03:12:28;;;;;;;31.95;12.70;;;;;;;-4.45;76.96;100609.56;2016456;86;21364;-78
2022/01/07 03:15:33;;;;;;;38.02;14.10;;;;;;;-4.47;76.77;100603.62;1995779;87;21098;-78
2022/01/07 03:18:35;;;;;;;36.75;13.10;;;;;;;-4.48;77.14;100599.32;1979475;87;21050;-78
2022/01/07 03:21:39;;;;;;;33.98;13.62;;;;;;;-4.44;77.02;100603.49;2017750;86;21047;-78
2022/01/07 03:24:40;;;;;;;31.82;11.53;;;;;;;-4.42;76.75;100604.25;1996280;86;21035;-78
2022/01/07 03:27:46;;;;;;;31.42;11.30;;;;;;;-4.41;77.01;100602.08;1996434;86;21512;-78
2022/01/07 03:30:54;;;;;;;22.73;9.95;;;;;;;-4.38;77.01;100595.48;2016246;87;21356;-78
2022/01/07 03:33:57;;;;;;;28.45;10.63;;;;;;;-4.44;76.85;100600.91;2015055;86;21024;-78
2022/01/07 03:37:02;;;;;;;24.18;9.78;;;;;;;-4.48;76.84;100603.20;1996606;87;21612;-78
2022/01/07 03:40:07;;;;;;;26.00;10.32;;;;;;;-4.48;76.90;100595.44;2016335;86;21032;-78
2022/01/07 03:43:08;;;;;;;28.73;10.70;;;;;;;-4.48;76.88;100594.14;1991943;86;21054;-79
2022/01/07 03:46:12;;;;;;;22.17;8.95;;;;;;;-4.51;76.91;100588.16;1995708;87;21097;-78
2022/01/07 03:49:20;;;;;;;20.10;9.60;;;;;;;-4.54;76.86;100585.70;2015130;86;21054;-79
2022/01/07 03:52:23;;;;;;;21.62;8.50;;;;;;;-4.57;76.88;100588.41;1992654;86;21105;-78
2022/01/07 03:55:32;;;;;;;23.62;9.85;;;;;;;-4.59;76.92;100581.59;2000242;87;21160;-78
2022/01/07 03:58:37;;;;;;;24.82;9.38;;;;;;;-4.63;76.91;100582.63;2014708;87;21098;-78
2022/01/07 04:01:43;;;;;;;22.33;9.30;;;;;;;-4.65;77.02;100588.31;2014943;87;21007;-78
2022/01/07 04:04:48;;;;;;;20.17;8.65;;;;;;;-4.67;76.88;100588.39;2018030;87;21785;-79
2022/01/07 04:07:52;;;;;;;23.42;8.43;;;;;;;-4.70;76.91;100583.75;2013417;86;21937;-78
2022/01/07 04:10:55;;;;;;;19.52;8.08;;;;;;;-4.69;76.96;100585.46;1994017;86;21030;-78
2022/01/07 04:13:59;;;;;;;21.48;9.23;;;;;;;-4.68;77.00;100589.27;2012708;86;21023;-78
2022/01/07 04:17:06;;;;;;;19.35;8.20;;;;;;;-4.61;77.11;100586.02;1955297;87;21103;-78
2022/01/07 04:20:15;;;;;;;24.55;9.25;;;;;;;-4.54;76.99;100583.56;2022527;87;21002;-78
2022/01/07 04:23:22;;;;;;;23.02;8.63;;;;;;;-4.54;76.92;100582.27;2014758;86;21387;-78
2022/01/07 04:26:31;;;;;;;21.93;8.63;;;;;;;-4.57;76.84;100574.62;2016427;87;21072;-78
2022/01/07 04:29:32;;;;;;;19.85;8.28;;;;;;;-4.59;76.88;100579.00;1998096;87;21090;-78
2022/01/07 04:32:39;;;;;;;19.15;8.65;;;;;;;-4.57;77.00;100584.52;2016278;87;21027;-78
2022/01/07 04:35:46;;;;;;;22.05;8.08;;;;;;;-4.51;76.97;100574.38;1997049;87;21035;-78
2022/01/07 04:38:54;;;;;;;18.92;8.05;;;;;;;-4.53;76.96;100574.91;2011421;87;21067;-78
2022/01/07 04:42:07;;;;;;;23.60;7.95;;;;;;;-4.53;77.01;100577.50;2016778;86;21361;-78
2022/01/07 04:45:11;;;;;;;22.52;8.30;;;;;;;-4.53;76.94;100572.32;2014592;86;21603;-78
2022/01/07 04:48:15;;;;;;;27.02;9.78;;;;;;;-4.53;77.02;100571.86;2015776;86;21072;-78
2022/01/07 04:51:25;;;;;;;26.17;9.28;;;;;;;-4.54;77.05;100576.63;2019648;86;21628;-78
2022/01/07 04:54:27;;;;;;;22.30;8.25;;;;;;;-4.50;77.08;100570.91;2016995;87;21085;-78
2022/01/07 04:57:38;;;;;;;17.23;8.15;;;;;;;-4.48;77.08;100569.07;1998308;87;21539;-78
2022/01/07 05:00:43;;;;;;;18.00;7.05;;;;;;;-4.45;77.07;100569.41;1996161;86;21097;-78
2022/01/07 05:03:54;;;;;;;26.55;9.08;;;;;;;-4.41;77.06;100567.11;1996328;87;21051;-77
2022/01/07 05:06:52;;;;;;;18.42;7.35;;;;;;;-4.38;77.18;100566.98;1994521;86;21868;-78
2022/01/07 05:09:59;;;;;;;15.58;7.33;;;;;;;-4.32;77.17;100553.78;2015799;86;21495;-78
2022/01/07 05:13:01;;;;;;;15.68;7.50;;;;;;;-4.35;77.11;100565.10;1995839;86;21133;-78
2022/01/07 05:16:08;;;;;;;24.45;9.43;;;;;;;-4.34;77.10;100560.30;1992201;87;21123;-78
2022/01/07 05:19:13;;;;;;;17.20;9.33;;;;;;;-4.26;77.24;100552.69;1991960;88;21043;-78
2022/01/07 05:22:17;;;;;;;18.35;8.40;;;;;;;-4.27;77.17;100556.19;1985039;88;21101;-78
2022/01/07 05:25:23;;;;;;;18.20;7.50;;;;;;;-4.21;77.74;100544.28;1969733;88;21079;-78
2022/01/07 05:28:28;;;;;;;17.80;7.75;;;;;;;-4.16;77.33;100543.19;1952675;88;21115;-78
2022/01/07 05:31:34;;;;;;;18.77;8.68;;;;;;;-4.17;77.10;100542.77;1968230;88;21083;-78
2022/01/07 05:34:40;;;;;;;18.77;7.90;;;;;;;-4.16;77.08;100542.34;1950158;88;21522;-78
2022/01/07 05:37:42;;;;;;;15.40;8.25;;;;;;;-4.16;77.13;100541.89;1968594;88;21126;-78
2022/01/07 05:40:48;;;;;;;19.90;8.15;;;;;;;-4.12;77.20;100540.84;1984360;88;21819;-78
2022/01/07 05:43:51;;;;;;;19.87;8.55;;;;;;;-4.09;77.06;100545.06;1965428;88;21114;-78
2022/01/07 05:46:59;;;;;;;20.72;9.73;;;;;;;-4.09;76.87;100526.92;1970868;88;21613;-78
2022/01/07 05:50:07;;;;;;;18.95;8.78;;;;;;;-4.06;76.91;100531.52;1972519;88;21083;-78
2022/01/07 05:53:13;;;;;;;19.37;7.95;;;;;;;-4.05;76.84;100524.61;1988065;88;21101;-78
2022/01/07 05:56:17;;;;;;;16.95;8.93;;;;;;;-4.06;76.80;100520.30;1986583;88;21904;-78
2022/01/07 05:59:25;;;;;;;18.40;8.40;;;;;;;-4.10;77.02;100510.98;1990647;88;21155;-78
2022/01/07 06:02:31;;;;;;;19.45;8.98;;;;;;;-4.15;77.18;100509.88;1985066;88;20976;-78
2022/01/07 06:05:38;;;;;;;16.42;8.23;;;;;;;-4.20;77.21;100516.98;1990262;88;21032;-78
2022/01/07 06:08:43;;;;;;;19.65;8.93;;;;;;;-4.24;77.35;100516.73;1988699;88;21034;-78
2022/01/07 06:11:49;;;;;;;21.23;8.58;;;;;;;-4.25;77.43;100518.08;1970730;88;21110;-79
2022/01/07 06:14:58;;;;;;;20.80;9.85;;;;;;;-4.29;77.43;100525.98;1986714;88;21000;-78
2022/01/07 06:18:04;;;;;;;20.05;9.78;;;;;;;-4.31;77.53;100509.68;2013420;86;21087;-78
2022/01/07 06:21:06;;;;;;;18.17;8.13;;;;;;;-4.36;77.60;100512.07;1994522;86;21070;-78
2022/01/07 06:24:08;;;;;;;17.60;8.48;;;;;;;-4.41;77.73;100508.81;2019729;86;21574;-77
2022/01/07 06:27:12;;;;;;;19.20;8.50;;;;;;;-4.45;77.87;100507.23;2015598;86;21909;-77
2022/01/07 06:30:19;;;;;;;15.00;7.85;;;;;;;-4.47;78.12;100515.55;1997736;86;21028;-78
2022/01/07 06:33:24;;;;;;;18.25;8.53;;;;;;;-4.46;78.22;100515.92;1970633;89;21134;-78
2022/01/07 06:36:30;;;;;;;38.15;18.77;;;;;;;-4.45;78.25;100514.55;1995846;86;21113;-78
2022/01/07 06:39:35;;;;;;;106.78;40.25;;;;;;;-4.40;78.25;100524.73;2021661;86;21063;-78
2022/01/07 06:42:41;;;;;;;64.40;23.77;;;;;;;-4.32;78.24;100533.88;1952515;88;21141;-77
2022/01/07 06:45:50;;;;;;;39.83;15.00;;;;;;;-4.21;78.22;100545.57;1994965;85;21114;-77
2022/01/07 06:48:54;;;;;;;52.98;18.35;;;;;;;-4.14;78.17;100549.58;1996597;87;21127;-76
2022/01/07 06:51:58;;;;;;;124.67;47.60;;;;;;;-4.08;78.05;100551.48;1972597;87;21048;-75
2022/01/07 06:55:05;;;;;;;106.83;39.38;;;;;;;-4.07;78.05;100549.28;1980065;86;21621;-75
2022/01/07 06:58:16;;;;;;;43.30;17.85;;;;;;;-4.02;78.07;100548.27;2000835;87;21070;-76
2022/01/07 07:01:27;;;;;;;29.35;11.15;;;;;;;-4.04;77.92;100544.88;1973008;87;21097;-76
2022/01/07 07:04:40;;;;;;;17.23;7.03;;;;;;;-4.10;77.85;100540.80;1997240;86;21022;-78
2022/01/07 07:07:46;;;;;;;16.90;7.30;;;;;;;-4.15;77.89;100540.13;1968699;88;21979;-74
2022/01/07 07:10:48;;;;;;;15.63;7.00;;;;;;;-4.18;77.99;100534.63;2002408;87;21309;-72
2022/01/07 07:13:50;;;;;;;16.97;7.95;;;;;;;-4.14;78.07;100535.33;1997464;87;21111;-75
2022/01/07 07:16:55;;;;;;;17.05;7.25;;;;;;;-4.08;78.11;100530.76;2000258;86;21122;-75
2022/01/07 07:20:02;;;;;;;16.70;7.00;;;;;;;-4.06;77.96;100531.52;1989933;88;21150;-76
2022/01/07 07:23:10;;;;;;;15.32;6.65;;;;;;;-4.06;77.91;100535.40;1994443;88;21078;-76
2022/01/07 07:26:17;;;;;;;23.38;8.10;;;;;;;-4.10;77.92;100529.97;1989121;88;21375;-75
2022/01/07 07:29:23;;;;;;;29.35;11.33;;;;;;;-4.13;77.88;100530.55;1984395;88;21049;-74
2022/01/07 07:32:29;;;;;;;25.97;9.23;;;;;;;-4.15;77.98;100522.83;1984670;88;21096;-81
2022/01/07 07:38:56;;;;;;;19.42;7.37;;;;;;;-4.14;78.12;100516.76;1965161;88;21063;-76
2022/01/07 07:42:00;;;;;;;17.52;7.45;;;;;;;-4.01;78.29;100524.02;1992243;88;20967;-77
2022/01/07 07:45:06;;;;;;;19.60;8.20;;;;;;;-3.91;78.28;100521.44;1991057;88;21363;-77
2022/01/07 07:48:12;;;;;;;16.85;8.08;;;;;;;-3.74;78.36;100511.18;1967814;89;21095;-78
2022/01/07 07:51:15;;;;;;;18.60;8.35;;;;;;;-3.48;78.21;100506.14;1957454;89;21124;-79
2022/01/07 07:54:22;;;;;;;20.40;8.28;;;;;;;-3.24;78.12;100508.11;1965341;89;21503;-76
2022/01/07 07:57:25;;;;;;;20.77;9.40;;;;;;;-3.02;77.79;100500.62;1970144;88;21039;-76
2022/01/07 08:05:58;;;;;;;16.42;7.45;;;;;;;-2.63;77.03;100502.27;1987531;88;21062;-77
2022/01/07 08:09:00;;;;;;;20.02;9.40;;;;;;;-2.41;77.64;100486.02;1965434;88;21015;-76
2022/01/07 08:12:16;;;;;;;25.88;8.45;;;;;;;-1.94;76.59;100488.01;1965049;88;21089;-76
2022/01/07 08:18:41;;;;;;;18.35;7.62;;;;;;;-1.21;75.68;100496.77;1951743;88;21028;-77
2022/01/07 08:21:47;;;;;;;18.02;7.30;;;;;;;-0.73;75.80;100496.34;1927268;89;21339;-76
2022/01/07 08:24:57;;;;;;;16.65;7.40;;;;;;;-0.31;76.38;100496.12;1984731;88;21007;-76
2022/01/07 08:28:02;;;;;;;16.93;6.90;;;;;;;0.22;75.20;100499.98;1969409;88;21745;-76
2022/01/07 08:37:37;;;;;;;22.48;8.53;;;;;;;-0.28;72.56;100482.47;1987735;88;21867;-76
2022/01/07 08:40:43;;;;;;;19.62;8.25;;;;;;;-0.38;73.22;100481.78;1992516;88;21102;-77
2022/01/07 08:43:47;;;;;;;22.50;9.30;;;;;;;-0.34;73.29;100482.83;1986477;88;21076;-77
2022/01/07 08:46:52;;;;;;;19.67;8.38;;;;;;;-0.20;73.22;100482.00;1975986;88;20999;-76
2022/01/07 08:49:58;;;;;;;22.07;8.70;;;;;;;-0.08;73.54;100482.61;1989294;88;21138;-78
2022/01/07 08:53:05;;;;;;;18.85;8.43;;;;;;;-0.06;73.13;100488.59;1985687;88;21086;-78
2022/01/07 08:56:11;;;;;;;16.70;8.03;;;;;;;-0.11;73.10;100488.48;1985842;88;21082;-77
2022/01/07 08:59:15;;;;;;;27.58;9.28;;;;;;;-0.08;73.12;100487.83;1949686;88;21035;-76
2022/01/07 09:02:20;;;;;;;20.30;8.80;;;;;;;0.06;73.13;100485.72;1993827;88;21033;-76
2022/01/07 09:05:29;;;;;;;22.67;7.90;;;;;;;0.12;72.90;100487.13;1937760;90;21054;-76
2022/01/07 09:08:39;;;;;;;23.10;8.10;;;;;;;0.12;72.81;100493.18;1988221;88;21102;-76
2022/01/07 09:50:39;;;;;;;24.05;8.85;;;;;;;0.51;70.71;100464.75;2023530;82;64418;-81
2022/01/07 10:01:19;;;;;;;19.10;8.85;;;;;;;0.51;70.76;100454.30;1989974;86;21146;-83
2022/01/07 10:04:47;;;;;;;23.50;9.03;;;;;;;0.53;70.60;100444.61;2089505;83;21079;-78
2022/01/07 10:08:37;;;;;;;22.15;9.98;;;;;;;0.80;70.37;100433.76;2089844;83;21050;-80
2022/01/07 10:11:52;;;;;;;18.60;8.58;;;;;;;0.99;70.47;100432.61;2098193;82;21044;-80
2022/01/07 10:15:46;;;;;;;;;;;;;;;;;;;;;
2022/01/07 10:18:39;;;;;;;18.60;7.97;;;;;;;1.50;69.02;100415.78;2072006;85;21052;-78
2022/01/07 10:21:43;;;;;;;18.98;9.15;;;;;;;1.68;68.12;100409.31;2075940;84;21059;-81
2022/01/07 10:25:02;;;;;;;15.40;7.12;;;;;;;1.65;68.97;100402.14;2079035;84;21081;-80
2022/01/07 10:28:13;;;;;;;17.62;7.12;;;;;;;1.65;67.17;100399.05;2076640;85;21039;-81
2022/01/07 10:31:24;;;;;;;19.60;7.15;;;;;;;1.92;68.94;100400.77;2084262;84;21079;-83
2022/01/07 10:34:43;;;;;;;23.60;8.80;;;;;;;2.15;68.95;100390.86;2080460;85;21087;-80
2022/01/07 10:37:54;;;;;;;20.97;7.70;;;;;;;2.53;68.65;100395.18;2074607;85;21068;-81
2022/01/07 10:41:03;;;;;;;14.10;6.80;;;;;;;2.81;67.63;100384.88;2080522;84;21476;-80
2022/01/07 10:44:08;;;;;;;10.55;5.25;;;;;;;2.91;67.50;100385.91;2074206;84;21089;-79
2022/01/07 10:47:34;;;;;;;;;;;;;;;;;;;;;
2022/01/07 10:50:47;;;;;;;8.75;5.12;;;;;;;3.08;67.09;100381.22;2047243;85;21025;-81
2022/01/07 10:54:43;;;;;;;;;;;;;;;;;;;;;
2022/01/07 11:01:13;;;;;;;11.18;5.12;;;;;;;3.24;65.21;100384.84;2004856;85;21260;-79
2022/01/07 11:04:31;;;;;;;11.73;5.25;;;;;;;3.29;64.80;100385.35;1962651;89;21117;-78
2022/01/07 11:07:59;;;;;;;11.50;5.35;;;;;;;3.18;63.20;100376.13;1939787;89;21108;-82
2022/01/07 11:11:15;;;;;;;;;;;;;;;;;;;;;
2022/01/07 11:14:16;;;;;;;14.73;6.92;;;;;;;3.03;62.55;100374.99;2064029;85;22232;-81
2022/01/07 11:17:21;;;;;;;21.62;9.43;;;;;;;2.64;62.48;100380.84;2066494;85;21090;-80
2022/01/07 11:20:24;;;;;;;25.00;8.13;;;;;;;2.31;63.37;100372.31;2069770;85;21475;-80
2022/01/07 11:23:26;;;;;;;21.25;7.50;;;;;;;2.13;64.69;100365.25;2082679;84;21428;-78
2022/01/07 11:26:28;;;;;;;16.70;7.30;;;;;;;2.02;64.16;100365.16;2081935;85;21551;-82
2022/01/07 11:29:29;;;;;;;18.05;7.45;;;;;;;1.96;65.00;100366.89;2080156;84;20995;-78
2022/01/07 11:32:41;;;;;;;13.55;5.95;;;;;;;1.94;65.17;100372.69;2084170;84;20956;-81
2022/01/07 11:35:45;;;;;;;20.72;8.53;;;;;;;1.90;64.72;100366.01;2080979;85;20957;-81
2022/01/07 11:38:46;;;;;;;13.55;6.42;;;;;;;1.82;64.83;100361.77;2080588;85;21048;-81
2022/01/07 11:41:56;;;;;;;11.73;6.10;;;;;;;1.75;64.86;100354.34;2081095;84;20993;-81
2022/01/07 11:44:57;;;;;;;10.18;4.22;;;;;;;1.73;64.74;100352.29;2082801;84;20981;-76
2022/01/07 11:48:23;;;;;;;11.12;5.37;;;;;;;1.66;64.51;100347.12;2081441;84;21012;-78
2022/01/07 11:51:26;;;;;;;15.05;7.00;;;;;;;1.66;64.66;100346.27;2077934;84;21005;-80
2022/01/07 11:54:28;;;;;;;10.88;5.60;;;;;;;1.68;65.09;100347.83;2080772;84;21048;-80
2022/01/07 11:57:35;;;;;;;12.40;5.25;;;;;;;1.72;64.41;100338.85;2081424;84;20996;-79
2022/01/07 12:01:00;;;;;;;10.48;4.65;;;;;;;1.70;64.74;100326.81;2080817;85;21031;-78
2022/01/07 12:04:26;;;;;;;9.38;4.50;;;;;;;1.71;64.70;100327.17;2078332;84;20999;-80
2022/01/07 12:07:27;;;;;;;9.93;4.37;;;;;;;1.74;64.58;100319.94;2085001;84;21012;-80
2022/01/07 12:10:29;;;;;;;10.98;4.75;;;;;;;1.76;64.72;100319.85;2080074;85;21106;-81
2022/01/07 12:13:35;;;;;;;12.60;5.55;;;;;;;1.81;64.95;100317.76;2082139;85;21906;-81
2022/01/07 12:16:39;;;;;;;8.50;4.53;;;;;;;1.86;64.72;100317.42;2077970;85;21693;-84
2022/01/07 12:19:52;;;;;;;11.33;5.00;;;;;;;1.89;64.57;100313.31;2074668;84;21496;-80
2022/01/07 12:22:55;;;;;;;9.48;4.78;;;;;;;1.90;64.69;100311.88;2071386;84;20992;-79
2022/01/07 12:26:01;;;;;;;11.85;5.03;;;;;;;1.92;64.66;100304.77;2074144;84;21468;-81
2022/01/07 12:28:59;;;;;;;8.85;4.62;;;;;;;1.93;64.65;100294.66;2076486;85;20966;-80
2022/01/07 12:32:03;;;;;;;14.38;5.37;;;;;;;1.95;64.41;100299.80;2076944;84;20950;-79
2022/01/07 12:35:07;;;;;;;9.93;4.60;;;;;;;1.94;64.54;100298.11;2067539;85;21024;-79
2022/01/07 12:38:11;;;;;;;25.50;14.23;;;;;;;1.89;64.35;100290.59;2074302;85;20982;-78
2022/01/07 12:41:13;;;;;;;13.70;6.87;;;;;;;1.88;64.62;100291.99;2072469;84;21061;-79
2022/01/07 12:44:15;;;;;;;11.83;7.15;;;;;;;1.84;64.34;100285.31;2050601;85;20996;-80
2022/01/07 12:47:20;;;;;;;11.45;6.05;;;;;;;1.82;64.58;100279.34;2072362;84;21063;-77
2022/01/07 12:50:24;;;;;;;23.80;7.53;;;;;;;1.81;64.51;100278.99;2072028;84;21038;-79
2022/01/07 12:53:26;;;;;;;18.05;8.25;;;;;;;1.79;64.64;100275.98;2073907;84;21004;-79
2022/01/07 12:56:31;;;;;;;13.50;5.80;;;;;;;1.76;64.47;100264.43;2077803;85;21504;-79
2022/01/07 12:59:33;;;;;;;13.83;6.28;;;;;;;1.68;63.96;100260.67;2060884;85;20953;-80
2022/01/07 13:02:36;;;;;;;14.83;6.90;;;;;;;1.60;64.25;100265.59;2071675;84;21109;-79
2022/01/07 13:05:41;;;;;;;15.48;6.67;;;;;;;1.59;64.48;100265.24;2076390;84;20985;-78
2022/01/07 13:08:42;;;;;;;24.02;10.13;;;;;;;1.57;64.59;100255.70;2075830;85;20985;-79
2022/01/07 13:11:49;;;;;;;27.13;10.53;;;;;;;1.57;64.22;100255.70;2073081;85;21018;-77
2022/01/07 13:14:51;;;;;;;14.83;6.60;;;;;;;1.60;64.70;100257.75;2077903;85;21056;-77
2022/01/07 13:17:52;;;;;;;11.78;5.85;;;;;;;1.59;64.05;100256.92;2059558;85;21508;-79
2022/01/07 13:21:11;;;;;;;13.65;6.25;;;;;;;1.55;64.45;100255.47;2045142;86;21043;-77
2022/01/07 13:24:23;;;;;;;14.40;5.83;;;;;;;1.53;64.58;100252.95;2044562;86;21631;-78
2022/01/07 13:27:24;;;;;;;15.03;6.90;;;;;;;1.50;64.63;100254.47;2049350;86;20992;-79
2022/01/07 13:30:42;;;;;;;18.00;7.67;;;;;;;1.48;64.47;100251.59;2044051;86;21599;-78
2022/01/07 13:33:44;;;;;;;54.65;21.27;;;;;;;1.44;64.55;100247.05;2045373;86;21060;-81
2022/01/07 13:36:46;;;;;;;25.50;11.60;;;;;;;1.43;64.77;100245.84;2047514;86;21567;-80
2022/01/07 13:39:54;;;;;;;16.65;9.28;;;;;;;1.38;63.93;100250.09;2045002;86;21017;-82
2022/01/07 13:43:07;;;;;;;13.80;7.28;;;;;;;1.30;63.38;100244.55;2049325;86;20997;-80
2022/01/07 13:46:20;;;;;;;17.35;7.25;;;;;;;1.22;63.86;100238.52;2045885;86;21007;-80
2022/01/07 13:49:21;;;;;;;17.73;6.62;;;;;;;1.16;64.19;100242.03;2049275;86;21495;-80
2022/01/07 13:52:29;;;;;;;16.75;6.67;;;;;;;1.12;63.91;100242.69;2046962;86;21010;-80
2022/01/07 13:55:36;;;;;;;12.35;5.90;;;;;;;1.07;64.14;100243.02;2050913;86;20940;-80
2022/01/07 13:58:40;;;;;;;15.80;7.03;;;;;;;1.04;64.05;100234.08;2048098;86;21072;-79
2022/01/07 14:02:00;;;;;;;11.78;5.30;;;;;;;1.05;64.30;100239.66;2046079;86;21024;-80
2022/01/07 14:05:13;;;;;;;17.05;5.10;;;;;;;1.02;64.18;100226.80;2047403;86;21033;-82
2022/01/07 14:08:21;;;;;;;10.25;4.92;;;;;;;0.99;64.14;100223.56;2048100;86;20992;-79
2022/01/07 14:11:23;;;;;;;11.80;5.47;;;;;;;0.96;64.83;100225.05;2045312;86;21048;-80
2022/01/07 14:14:26;;;;;;;12.30;5.87;;;;;;;0.95;64.24;100222.08;2050879;86;21522;-80
2022/01/07 14:17:27;;;;;;;13.83;6.00;;;;;;;0.93;64.35;100226.56;2057724;83;21062;-78
2022/01/07 14:20:54;;;;;;;15.08;5.95;;;;;;;0.89;64.44;100222.84;2072397;85;21039;-79
2022/01/07 14:23:56;;;;;;;13.08;5.90;;;;;;;0.85;64.45;100213.56;2073283;85;21537;-79
2022/01/07 14:26:58;;;;;;;12.07;6.10;;;;;;;0.82;64.91;100212.94;2072561;85;20950;-78
2022/01/07 14:30:01;;;;;;;19.70;9.03;;;;;;;0.77;64.58;100207.17;2076389;85;21024;-80
2022/01/07 14:33:03;;;;;;;23.20;10.20;;;;;;;0.73;64.78;100204.38;2074456;85;21056;-79
2022/01/07 14:36:05;;;;;;;19.73;7.67;;;;;;;0.70;64.77;100200.19;2074436;85;21037;-79
2022/01/07 14:39:06;;;;;;;13.90;6.12;;;;;;;0.65;65.24;100203.13;2074726;85;21028;-80
2022/01/07 14:42:08;;;;;;;18.48;8.33;;;;;;;0.63;65.26;100198.94;2077836;84;20987;-77
2022/01/07 14:45:12;;;;;;;22.15;9.68;;;;;;;0.60;65.27;100190.84;2069878;85;21519;-78
2022/01/07 14:48:14;;;;;;;18.57;7.62;;;;;;;0.55;65.46;100187.69;2072482;85;21021;-79
2022/01/07 14:51:16;;;;;;;21.00;9.68;;;;;;;0.53;65.55;100186.94;2076378;85;21499;-80
2022/01/07 14:54:17;;;;;;;14.80;6.97;;;;;;;0.51;65.69;100191.89;2073349;85;21027;-80
2022/01/07 14:57:19;;;;;;;19.35;7.62;;;;;;;0.51;65.67;100194.50;2076373;84;21046;-79
2022/01/07 15:00:22;;;;;;;20.05;7.62;;;;;;;0.50;65.72;100192.84;2071461;85;21499;-77
2022/01/07 15:03:24;;;;;;;18.12;7.45;;;;;;;0.50;65.69;100190.23;2074234;84;21021;-80
2022/01/07 15:06:25;;;;;;;21.17;8.45;;;;;;;0.50;65.88;100183.70;2072150;85;21064;-82
2022/01/07 15:09:30;;;;;;;14.85;7.33;;;;;;;0.51;65.94;100181.45;2074828;85;21646;-80
2022/01/07 15:12:34;;;;;;;16.30;7.92;;;;;;;0.51;65.90;100182.31;2071002;84;21058;-78
2022/01/07 15:18:56;;;;;;;13.05;7.03;;;;;;;0.50;65.95;100174.56;2048523;85;21081;-83
2022/01/07 15:22:01;;;;;;;16.12;6.37;;;;;;;0.50;65.91;100175.87;2036724;86;21072;-81
2022/01/07 15:25:03;;;;;;;16.12;6.62;;;;;;;0.49;65.85;100163.77;2034024;86;20957;-77
2022/01/07 15:28:05;;;;;;;26.00;11.40;;;;;;;0.49;65.74;100176.82;2040346;86;20985;-80
2022/01/07 15:31:06;;;;;;;17.92;7.05;;;;;;;0.49;65.50;100172.91;2038545;86;21053;-80
2022/01/07 15:34:09;;;;;;;12.10;5.80;;;;;;;0.50;65.57;100163.65;2033376;86;21057;-82
2022/01/07 15:37:11;;;;;;;10.65;6.42;;;;;;;0.52;65.41;100167.00;2037450;86;21045;-79
2022/01/07 15:40:14;;;;;;;12.33;6.05;;;;;;;0.52;65.13;100157.86;2039179;86;21069;-84